sensor_id;sensor_type;location;lat;lon;timestamp;pressure;altitude;pressure_sealevel;temperature;humidity
79150;BME280;68563;45.644;13.782;2023-10-31T00:01:58;99830.78;;;18.54;84.08
79150;BME280;68563;45.644;13.782;2023-10-31T00:04:24;99827.44;;;18.52;84.85
79150;BME280;68563;45.644;13.782;2023-10-31T00:06:49;99802.50;;;18.44;86.01
79150;BME280;68563;45.644;13.782;2023-10-31T00:09:14;99728.06;;;18.32;87.40
79150;BME280;68563;45.644;13.782;2023-10-31T00:11:43;99772.06;;;18.27;85.69
79150;BME280;68563;45.644;13.782;2023-10-31T00:14:09;99780.50;;;18.32;85.46
79150;BME280;68563;45.644;13.782;2023-10-31T00:16:34;99794.16;;;18.38;84.86
79150;BME280;68563;45.644;13.782;2023-10-31T00:19:00;99804.47;;;18.41;84.53
79150;BME280;68563;45.644;13.782;2023-10-31T00:21:25;99810.66;;;18.40;84.68
79150;BME280;68563;45.644;13.782;2023-10-31T00:23:51;99792.97;;;18.43;84.85
79150;BME280;68563;45.644;13.782;2023-10-31T00:26:16;99774.72;;;18.42;85.41
79150;BME280;68563;45.644;13.782;2023-10-31T00:28:42;99798.84;;;18.47;85.69
79150;BME280;68563;45.644;13.782;2023-10-31T00:31:07;99813.56;;;18.49;86.21
79150;BME280;68563;45.644;13.782;2023-10-31T00:33:36;99826.78;;;18.48;86.88
79150;BME280;68563;45.644;13.782;2023-10-31T00:36:01;99872.94;;;18.50;87.46
79150;BME280;68563;45.644;13.782;2023-10-31T00:38:27;99811.88;;;18.48;88.29
79150;BME280;68563;45.644;13.782;2023-10-31T00:40:53;99709.56;;;18.36;84.64
79150;BME280;68563;45.644;13.782;2023-10-31T00:43:18;99702.03;;;18.29;88.11
79150;BME280;68563;45.644;13.782;2023-10-31T00:45:44;99656.19;;;18.22;87.97
79150;BME280;68563;45.644;13.782;2023-10-31T00:48:09;99658.81;;;18.22;87.38
79150;BME280;68563;45.644;13.782;2023-10-31T00:50:34;99643.94;;;18.23;85.32
79150;BME280;68563;45.644;13.782;2023-10-31T00:53:00;99657.84;;;18.23;83.28
79150;BME280;68563;45.644;13.782;2023-10-31T00:55:25;99673.59;;;18.23;82.51
79150;BME280;68563;45.644;13.782;2023-10-31T00:57:51;99708.41;;;18.25;79.32
79150;BME280;68563;45.644;13.782;2023-10-31T01:00:16;99724.41;;;18.21;80.57
79150;BME280;68563;45.644;13.782;2023-10-31T01:02:42;99738.16;;;18.24;81.06
79150;BME280;68563;45.644;13.782;2023-10-31T01:05:08;99724.03;;;18.27;80.46
79150;BME280;68563;45.644;13.782;2023-10-31T01:07:34;99734.50;;;18.27;80.90
79150;BME280;68563;45.644;13.782;2023-10-31T01:09:59;99726.59;;;18.28;81.01
79150;BME280;68563;45.644;13.782;2023-10-31T01:12:25;99729.09;;;18.30;81.33
79150;BME280;68563;45.644;13.782;2023-10-31T01:14:53;99720.31;;;18.31;81.63
79150;BME280;68563;45.644;13.782;2023-10-31T01:17:19;99727.31;;;18.30;81.72
79150;BME280;68563;45.644;13.782;2023-10-31T01:19:45;99732.56;;;18.30;82.40
79150;BME280;68563;45.644;13.782;2023-10-31T01:22:10;99730.69;;;18.32;82.43
79150;BME280;68563;45.644;13.782;2023-10-31T01:24:35;99720.31;;;18.31;83.00
79150;BME280;68563;45.644;13.782;2023-10-31T01:27:01;99722.00;;;18.32;82.84
79150;BME280;68563;45.644;13.782;2023-10-31T01:29:27;99727.03;;;18.35;83.21
79150;BME280;68563;45.644;13.782;2023-10-31T01:31:52;99728.72;;;18.36;83.09
79150;BME280;68563;45.644;13.782;2023-10-31T01:34:17;99732.09;;;18.38;83.01
79150;BME280;68563;45.644;13.782;2023-10-31T01:36:43;99729.75;;;18.33;83.12
79150;BME280;68563;45.644;13.782;2023-10-31T01:39:08;99729.84;;;18.32;83.55
79150;BME280;68563;45.644;13.782;2023-10-31T01:41:35;99705.78;;;18.25;83.26
79150;BME280;68563;45.644;13.782;2023-10-31T01:44:01;99717.75;;;18.29;83.19
79150;BME280;68563;45.644;13.782;2023-10-31T01:46:27;99711.69;;;18.29;83.15
79150;BME280;68563;45.644;13.782;2023-10-31T01:48:53;99722.06;;;18.30;83.45
79150;BME280;68563;45.644;13.782;2023-10-31T01:51:18;99707.94;;;18.33;83.26
79150;BME280;68563;45.644;13.782;2023-10-31T01:53:44;99719.44;;;18.30;83.66
79150;BME280;68563;45.644;13.782;2023-10-31T01:56:09;99715.78;;;18.33;83.81
79150;BME280;68563;45.644;13.782;2023-10-31T01:58:36;99713.81;;;18.37;83.90
79150;BME280;68563;45.644;13.782;2023-10-31T02:01:02;99707.75;;;18.36;83.52
79150;BME280;68563;45.644;13.782;2023-10-31T02:03:29;99700.00;;;18.34;83.63
79150;BME280;68563;45.644;13.782;2023-10-31T02:05:55;99702.34;;;18.39;84.08
79150;BME280;68563;45.644;13.782;2023-10-31T02:08:21;99678.00;;;18.37;84.46
79150;BME280;68563;45.644;13.782;2023-10-31T02:10:47;99680.50;;;18.39;84.76
79150;BME280;68563;45.644;13.782;2023-10-31T02:13:15;99677.63;;;18.43;85.60
79150;BME280;68563;45.644;13.782;2023-10-31T02:15:42;99671.34;;;18.46;85.48
79150;BME280;68563;45.644;13.782;2023-10-31T02:18:08;99673.47;;;18.54;86.47
79150;BME280;68563;45.644;13.782;2023-10-31T02:20:34;99689.03;;;18.57;86.46
79150;BME280;68563;45.644;13.782;2023-10-31T02:22:59;99671.72;;;18.54;86.42
79150;BME280;68563;45.644;13.782;2023-10-31T02:25:25;99686.41;;;18.57;85.88
79150;BME280;68563;45.644;13.782;2023-10-31T02:27:50;99686.28;;;18.58;86.32
79150;BME280;68563;45.644;13.782;2023-10-31T02:30:16;99675.41;;;18.64;85.97
79150;BME280;68563;45.644;13.782;2023-10-31T02:32:42;99682.19;;;18.69;86.16
79150;BME280;68563;45.644;13.782;2023-10-31T02:35:07;99687.22;;;18.72;86.33
79150;BME280;68563;45.644;13.782;2023-10-31T02:37:33;99687.41;;;18.69;86.50
79150;BME280;68563;45.644;13.782;2023-10-31T02:40:00;99684.81;;;18.69;86.66
79150;BME280;68563;45.644;13.782;2023-10-31T02:42:26;99687.59;;;18.65;86.34
79150;BME280;68563;45.644;13.782;2023-10-31T02:44:51;99688.25;;;18.69;86.49
79150;BME280;68563;45.644;13.782;2023-10-31T02:47:17;99677.31;;;18.62;86.06
79150;BME280;68563;45.644;13.782;2023-10-31T02:49:42;99686.13;;;18.61;86.29
79150;BME280;68563;45.644;13.782;2023-10-31T02:52:07;99693.78;;;18.64;86.14
79150;BME280;68563;45.644;13.782;2023-10-31T02:54:33;99693.06;;;18.62;85.83
79150;BME280;68563;45.644;13.782;2023-10-31T02:56:58;99701.56;;;18.66;86.09
79150;BME280;68563;45.644;13.782;2023-10-31T02:59:24;99693.88;;;18.63;85.64
79150;BME280;68563;45.644;13.782;2023-10-31T03:01:49;99701.66;;;18.64;85.05
79150;BME280;68563;45.644;13.782;2023-10-31T03:04:15;99695.69;;;18.62;85.52
79150;BME280;68563;45.644;13.782;2023-10-31T03:06:41;99693.06;;;18.62;85.46
79150;BME280;68563;45.644;13.782;2023-10-31T03:09:07;99699.78;;;18.66;84.62
79150;BME280;68563;45.644;13.782;2023-10-31T03:11:32;99698.94;;;18.66;84.22
79150;BME280;68563;45.644;13.782;2023-10-31T03:13:58;99696.22;;;18.68;84.43
79150;BME280;68563;45.644;13.782;2023-10-31T03:16:24;99692.00;;;18.65;84.56
79150;BME280;68563;45.644;13.782;2023-10-31T03:18:50;99691.09;;;18.66;84.13
79150;BME280;68563;45.644;13.782;2023-10-31T03:21:15;99700.31;;;18.72;83.84
79150;BME280;68563;45.644;13.782;2023-10-31T03:23:42;99700.44;;;18.70;83.48
79150;BME280;68563;45.644;13.782;2023-10-31T03:26:08;99682.19;;;18.69;83.45
79150;BME280;68563;45.644;13.782;2023-10-31T03:28:33;99682.81;;;18.72;83.29
79150;BME280;68563;45.644;13.782;2023-10-31T03:30:59;99684.81;;;18.69;83.38
79150;BME280;68563;45.644;13.782;2023-10-31T03:33:24;99689.09;;;18.70;83.26
79150;BME280;68563;45.644;13.782;2023-10-31T03:35:50;99697.06;;;18.68;82.95
79150;BME280;68563;45.644;13.782;2023-10-31T03:38:15;99690.16;;;18.67;82.66
79150;BME280;68563;45.644;13.782;2023-10-31T03:40:41;99696.50;;;18.63;83.07
79150;BME280;68563;45.644;13.782;2023-10-31T03:43:06;99687.81;;;18.62;83.24
79150;BME280;68563;45.644;13.782;2023-10-31T03:45:32;99681.69;;;18.62;83.55
79150;BME280;68563;45.644;13.782;2023-10-31T03:47:58;99672.25;;;18.59;83.61
79150;BME280;68563;45.644;13.782;2023-10-31T03:50:23;99685.25;;;18.61;83.56
79150;BME280;68563;45.644;13.782;2023-10-31T03:52:49;99680.22;;;18.58;83.49
79150;BME280;68563;45.644;13.782;2023-10-31T03:55:14;99672.53;;;18.55;83.89
79150;BME280;68563;45.644;13.782;2023-10-31T03:57:39;99676.84;;;18.56;83.58
79150;BME280;68563;45.644;13.782;2023-10-31T04:00:05;99675.16;;;18.55;83.67
79150;BME280;68563;45.644;13.782;2023-10-31T04:02:33;99670.41;;;18.47;84.24
79150;BME280;68563;45.644;13.782;2023-10-31T04:04:58;99665.91;;;18.49;83.88
79150;BME280;68563;45.644;13.782;2023-10-31T04:07:24;99674.50;;;18.51;83.95
79150;BME280;68563;45.644;13.782;2023-10-31T04:09:49;99662.34;;;18.50;83.71
79150;BME280;68563;45.644;13.782;2023-10-31T04:12:16;99664.13;;;18.49;83.62
79150;BME280;68563;45.644;13.782;2023-10-31T04:14:42;99674.50;;;18.51;84.24
79150;BME280;68563;45.644;13.782;2023-10-31T04:17:07;99673.47;;;18.54;83.35
79150;BME280;68563;45.644;13.782;2023-10-31T04:19:33;99663.09;;;18.52;83.60
79150;BME280;68563;45.644;13.782;2023-10-31T04:21:58;99665.06;;;18.48;83.77
79150;BME280;68563;45.644;13.782;2023-10-31T04:24:23;99669.25;;;18.51;83.96
79150;BME280;68563;45.644;13.782;2023-10-31T04:26:49;99668.59;;;18.47;83.74
79150;BME280;68563;45.644;13.782;2023-10-31T04:29:14;99665.91;;;18.49;83.74
79150;BME280;68563;45.644;13.782;2023-10-31T04:31:40;99670.94;;;18.52;83.56
79150;BME280;68563;45.644;13.782;2023-10-31T04:34:05;99667.03;;;18.45;83.84
79150;BME280;68563;45.644;13.782;2023-10-31T04:36:30;99665.16;;;18.47;83.55
79150;BME280;68563;45.644;13.782;2023-10-31T04:38:56;99656.53;;;18.45;83.29
79150;BME280;68563;45.644;13.782;2023-10-31T04:41:22;99658.97;;;18.48;83.36
79150;BME280;68563;45.644;13.782;2023-10-31T04:43:47;99647.84;;;18.44;82.85
79150;BME280;68563;45.644;13.782;2023-10-31T04:46:12;99648.28;;;18.51;82.09
79150;BME280;68563;45.644;13.782;2023-10-31T04:48:38;99636.97;;;18.50;81.76
79150;BME280;68563;45.644;13.782;2023-10-31T04:51:04;99635.56;;;18.45;81.45
79150;BME280;68563;45.644;13.782;2023-10-31T04:53:29;99626.00;;;18.44;80.78
79150;BME280;68563;45.644;13.782;2023-10-31T04:55:55;99618.50;;;18.52;80.38
79150;BME280;68563;45.644;13.782;2023-10-31T04:58:20;99619.75;;;18.46;79.99
79150;BME280;68563;45.644;13.782;2023-10-31T05:00:46;99603.72;;;18.51;80.36
79150;BME280;68563;45.644;13.782;2023-10-31T05:03:12;99605.25;;;18.41;80.77
79150;BME280;68563;45.644;13.782;2023-10-31T05:05:37;99584.66;;;18.34;80.71
79150;BME280;68563;45.644;13.782;2023-10-31T05:08:03;99597.03;;;18.32;80.67
79150;BME280;68563;45.644;13.782;2023-10-31T05:10:28;99584.19;;;18.28;80.94
79150;BME280;68563;45.644;13.782;2023-10-31T05:12:54;99567.44;;;18.30;80.75
79150;BME280;68563;45.644;13.782;2023-10-31T05:15:19;99564.75;;;18.32;80.25
79150;BME280;68563;45.644;13.782;2023-10-31T05:17:45;99548.66;;;18.24;80.15
79150;BME280;68563;45.644;13.782;2023-10-31T05:20:10;99550.78;;;18.31;79.78
79150;BME280;68563;45.644;13.782;2023-10-31T05:22:36;99550.03;;;18.29;79.46
79150;BME280;68563;45.644;13.782;2023-10-31T05:25:02;99543.03;;;18.30;80.05
79150;BME280;68563;45.644;13.782;2023-10-31T05:27:28;99534.28;;;18.29;79.99
79150;BME280;68563;45.644;13.782;2023-10-31T05:29:54;99537.13;;;18.26;80.01
79150;BME280;68563;45.644;13.782;2023-10-31T05:32:19;99543.13;;;18.28;80.03
79150;BME280;68563;45.644;13.782;2023-10-31T05:34:45;99553.69;;;18.27;79.66
79150;BME280;68563;45.644;13.782;2023-10-31T05:37:10;99549.47;;;18.24;79.93
79150;BME280;68563;45.644;13.782;2023-10-31T05:39:35;99554.63;;;18.26;79.58
79150;BME280;68563;45.644;13.782;2023-10-31T05:42:02;99544.63;;;18.18;79.27
79150;BME280;68563;45.644;13.782;2023-10-31T05:44:28;99535.06;;;18.17;79.40
79150;BME280;68563;45.644;13.782;2023-10-31T05:46:53;99554.81;;;18.23;79.55
79150;BME280;68563;45.644;13.782;2023-10-31T05:49:19;99559.25;;;18.22;79.32
79150;BME280;68563;45.644;13.782;2023-10-31T05:51:49;99566.91;;;18.25;79.68
79150;BME280;68563;45.644;13.782;2023-10-31T05:54:15;99579.16;;;18.25;79.32
79150;BME280;68563;45.644;13.782;2023-10-31T05:56:40;99587.84;;;18.25;79.35
79150;BME280;68563;45.644;13.782;2023-10-31T05:59:05;99583.53;;;18.24;79.48
79150;BME280;68563;45.644;13.782;2023-10-31T06:01:31;99567.00;;;18.24;79.50
79150;BME280;68563;45.644;13.782;2023-10-31T06:03:57;99564.28;;;18.25;79.49
79150;BME280;68563;45.644;13.782;2023-10-31T06:06:22;99570.44;;;18.24;79.32
79150;BME280;68563;45.644;13.782;2023-10-31T06:08:48;99557.56;;;18.21;79.23
79150;BME280;68563;45.644;13.782;2023-10-31T06:11:13;99550.63;;;18.20;79.57
79150;BME280;68563;45.644;13.782;2023-10-31T06:13:39;99552.22;;;18.23;79.30
79150;BME280;68563;45.644;13.782;2023-10-31T06:16:04;99554.72;;;18.24;79.64
79150;BME280;68563;45.644;13.782;2023-10-31T06:18:30;99554.00;;;18.22;79.55
79150;BME280;68563;45.644;13.782;2023-10-31T06:20:56;99560.81;;;18.25;79.83
79150;BME280;68563;45.644;13.782;2023-10-31T06:23:21;99571.38;;;18.23;80.26
79150;BME280;68563;45.644;13.782;2023-10-31T06:25:46;99587.31;;;18.20;80.46
79150;BME280;68563;45.644;13.782;2023-10-31T06:28:12;99587.69;;;18.14;80.28
79150;BME280;68563;45.644;13.782;2023-10-31T06:30:37;99614.34;;;18.21;80.06
79150;BME280;68563;45.644;13.782;2023-10-31T06:33:03;99621.09;;;18.25;80.54
79150;BME280;68563;45.644;13.782;2023-10-31T06:35:28;99626.03;;;18.29;80.12
79150;BME280;68563;45.644;13.782;2023-10-31T06:37:55;99626.03;;;18.29;80.56
79150;BME280;68563;45.644;13.782;2023-10-31T06:40:25;99622.69;;;18.27;80.04
79150;BME280;68563;45.644;13.782;2023-10-31T06:42:51;99603.78;;;18.22;79.82
79150;BME280;68563;45.644;13.782;2023-10-31T06:45:16;99606.75;;;18.16;79.84
79150;BME280;68563;45.644;13.782;2023-10-31T06:47:42;99613.03;;;18.13;79.31
79150;BME280;68563;45.644;13.782;2023-10-31T06:50:08;99620.06;;;18.13;79.10
79150;BME280;68563;45.644;13.782;2023-10-31T06:52:34;99612.47;;;18.08;78.52
79150;BME280;68563;45.644;13.782;2023-10-31T06:55:00;99620.88;;;17.99;78.41
79150;BME280;68563;45.644;13.782;2023-10-31T06:57:25;99613.69;;;18.02;78.38
79150;BME280;68563;45.644;13.782;2023-10-31T06:59:51;99592.94;;;17.99;78.16
79150;BME280;68563;45.644;13.782;2023-10-31T07:02:17;99620.06;;;17.98;78.23
79150;BME280;68563;45.644;13.782;2023-10-31T07:04:42;99621.09;;;17.96;78.93
79150;BME280;68563;45.644;13.782;2023-10-31T07:07:08;99624.72;;;17.93;79.10
79150;BME280;68563;45.644;13.782;2023-10-31T07:09:33;99643.88;;;17.94;78.62
79150;BME280;68563;45.644;13.782;2023-10-31T07:11:59;99645.28;;;17.85;79.08
79150;BME280;68563;45.644;13.782;2023-10-31T07:14:24;99663.41;;;17.88;79.39
79150;BME280;68563;45.644;13.782;2023-10-31T07:16:49;99674.53;;;17.77;79.45
79150;BME280;68563;45.644;13.782;2023-10-31T07:19:15;99666.97;;;17.73;79.23
79150;BME280;68563;45.644;13.782;2023-10-31T07:21:41;99688.28;;;17.66;79.77
79150;BME280;68563;45.644;13.782;2023-10-31T07:24:06;99680.84;;;17.59;80.02
79150;BME280;68563;45.644;13.782;2023-10-31T07:26:34;99652.25;;;17.56;79.81
79150;BME280;68563;45.644;13.782;2023-10-31T07:29:00;99675.88;;;17.54;80.58
79150;BME280;68563;45.644;13.782;2023-10-31T07:31:25;99691.72;;;17.36;81.10
79150;BME280;68563;45.644;13.782;2023-10-31T07:33:51;99682.59;;;17.44;80.54
79150;BME280;68563;45.644;13.782;2023-10-31T07:36:16;99655.06;;;17.36;80.77
79150;BME280;68563;45.644;13.782;2023-10-31T07:38:42;99672.63;;;17.34;80.68
79150;BME280;68563;45.644;13.782;2023-10-31T07:41:07;99669.59;;;17.26;81.20
79150;BME280;68563;45.644;13.782;2023-10-31T07:43:32;99659.50;;;17.20;81.54
79150;BME280;68563;45.644;13.782;2023-10-31T07:45:59;99643.06;;;17.18;81.81
79150;BME280;68563;45.644;13.782;2023-10-31T07:48:24;99636.72;;;17.22;80.69
79150;BME280;68563;45.644;13.782;2023-10-31T07:50:49;99641.19;;;17.20;80.76
79150;BME280;68563;45.644;13.782;2023-10-31T07:53:15;99636.97;;;17.17;80.46
79150;BME280;68563;45.644;13.782;2023-10-31T07:55:40;99630.81;;;17.18;81.15
79150;BME280;68563;45.644;13.782;2023-10-31T07:58:06;99617.16;;;17.13;79.86
79150;BME280;68563;45.644;13.782;2023-10-31T08:00:31;99623.13;;;17.15;78.95
79150;BME280;68563;45.644;13.782;2023-10-31T08:02:58;99638.56;;;17.20;79.91
79150;BME280;68563;45.644;13.782;2023-10-31T08:05:23;99655.19;;;17.19;79.95
79150;BME280;68563;45.644;13.782;2023-10-31T08:07:49;99656.16;;;17.18;78.58
79150;BME280;68563;45.644;13.782;2023-10-31T08:10:14;99668.63;;;17.13;79.82
79150;BME280;68563;45.644;13.782;2023-10-31T08:12:40;99661.78;;;17.10;78.71
79150;BME280;68563;45.644;13.782;2023-10-31T08:15:06;99649.38;;;17.14;78.36
79150;BME280;68563;45.644;13.782;2023-10-31T08:17:31;99660.16;;;17.23;77.88
79150;BME280;68563;45.644;13.782;2023-10-31T08:19:57;99663.03;;;17.19;77.01
79150;BME280;68563;45.644;13.782;2023-10-31T08:22:22;99687.25;;;17.22;78.24
79150;BME280;68563;45.644;13.782;2023-10-31T08:24:47;99693.69;;;17.17;77.73
79150;BME280;68563;45.644;13.782;2023-10-31T08:27:13;99698.16;;;17.15;76.69
79150;BME280;68563;45.644;13.782;2023-10-31T08:29:38;99715.56;;;17.16;76.57
79150;BME280;68563;45.644;13.782;2023-10-31T08:32:05;99716.72;;;17.10;76.47
79150;BME280;68563;45.644;13.782;2023-10-31T08:34:30;99735.72;;;17.14;76.56
79150;BME280;68563;45.644;13.782;2023-10-31T08:36:56;99747.78;;;17.16;77.10
79150;BME280;68563;45.644;13.782;2023-10-31T08:39:22;99745.34;;;17.13;75.82
79150;BME280;68563;45.644;13.782;2023-10-31T08:44:16;99770.56;;;17.14;75.92
79150;BME280;68563;45.644;13.782;2023-10-31T08:46:41;99773.44;;;17.10;75.56
79150;BME280;68563;45.644;13.782;2023-10-31T08:49:07;99769.22;;;17.07;74.25
79150;BME280;68563;45.644;13.782;2023-10-31T08:51:32;99742.38;;;17.03;73.72
79150;BME280;68563;45.644;13.782;2023-10-31T08:53:58;99740.69;;;17.02;74.21
79150;BME280;68563;45.644;13.782;2023-10-31T08:56:23;99740.75;;;17.01;73.97
79150;BME280;68563;45.644;13.782;2023-10-31T08:58:48;99751.59;;;17.11;73.53
79150;BME280;68563;45.644;13.782;2023-10-31T09:01:14;99749.66;;;17.14;73.60
79150;BME280;68563;45.644;13.782;2023-10-31T09:03:39;99770.72;;;17.11;73.97
79150;BME280;68563;45.644;13.782;2023-10-31T09:06:05;99774.59;;;17.20;74.35
79150;BME280;68563;45.644;13.782;2023-10-31T09:08:31;99764.00;;;17.23;74.23
79150;BME280;68563;45.644;13.782;2023-10-31T09:10:56;99760.94;;;17.31;74.77
79150;BME280;68563;45.644;13.782;2023-10-31T09:13:22;99758.41;;;17.29;73.92
79150;BME280;68563;45.644;13.782;2023-10-31T09:15:47;99751.34;;;17.31;74.52
79150;BME280;68563;45.644;13.782;2023-10-31T09:18:15;99752.84;;;17.35;73.78
79150;BME280;68563;45.644;13.782;2023-10-31T09:20:40;99753.50;;;17.39;74.21
79150;BME280;68563;45.644;13.782;2023-10-31T09:23:05;99747.44;;;17.38;73.29
79150;BME280;68563;45.644;13.782;2023-10-31T09:25:31;99742.69;;;17.45;73.66
79150;BME280;68563;45.644;13.782;2023-10-31T09:27:57;99734.31;;;17.54;72.87
79150;BME280;68563;45.644;13.782;2023-10-31T09:30:24;99743.59;;;17.60;73.26
79150;BME280;68563;45.644;13.782;2023-10-31T09:32:51;99745.28;;;17.61;73.19
79150;BME280;68563;45.644;13.782;2023-10-31T09:35:17;99752.97;;;17.64;72.76
79150;BME280;68563;45.644;13.782;2023-10-31T09:37:43;99756.88;;;17.57;71.68
79150;BME280;68563;45.644;13.782;2023-10-31T09:40:09;99741.81;;;17.61;72.04
79150;BME280;68563;45.644;13.782;2023-10-31T09:42:35;99745.28;;;17.61;71.91
79150;BME280;68563;45.644;13.782;2023-10-31T09:45:01;99756.78;;;17.59;72.01
79150;BME280;68563;45.644;13.782;2023-10-31T09:47:27;99756.88;;;17.57;72.44
79150;BME280;68563;45.644;13.782;2023-10-31T09:49:53;99764.63;;;17.59;72.27
79150;BME280;68563;45.644;13.782;2023-10-31T09:52:19;99763.03;;;17.56;72.63
79150;BME280;68563;45.644;13.782;2023-10-31T09:54:47;99768.00;;;17.61;72.40
79150;BME280;68563;45.644;13.782;2023-10-31T09:57:14;99780.22;;;17.60;73.21
79150;BME280;68563;45.644;13.782;2023-10-31T09:59:40;99797.47;;;17.64;73.36
79150;BME280;68563;45.644;13.782;2023-10-31T10:02:05;99787.41;;;17.73;72.81
79150;BME280;68563;45.644;13.782;2023-10-31T10:04:31;99781.88;;;17.63;72.30
79150;BME280;68563;45.644;13.782;2023-10-31T10:07:01;99781.75;;;17.64;72.80
79150;BME280;68563;45.644;13.782;2023-10-31T10:09:27;99775.66;;;17.64;73.12
79150;BME280;68563;45.644;13.782;2023-10-31T10:11:53;99773.91;;;17.64;72.92
79150;BME280;68563;45.644;13.782;2023-10-31T10:14:23;99778.97;;;17.67;72.87
79150;BME280;68563;45.644;13.782;2023-10-31T10:16:48;99770.94;;;17.70;72.78
79150;BME280;68563;45.644;13.782;2023-10-31T10:19:18;99783.84;;;17.74;72.96
79150;BME280;68563;45.644;13.782;2023-10-31T10:21:48;99782.66;;;17.79;72.92
79150;BME280;68563;45.644;13.782;2023-10-31T10:24:15;99783.31;;;17.83;72.55
79150;BME280;68563;45.644;13.782;2023-10-31T10:26:40;99779.78;;;17.84;72.23
79150;BME280;68563;45.644;13.782;2023-10-31T10:29:05;99777.72;;;17.89;72.03
79150;BME280;68563;45.644;13.782;2023-10-31T10:31:31;99770.63;;;17.91;72.00
79150;BME280;68563;45.644;13.782;2023-10-31T10:33:56;99773.03;;;17.96;72.23
79150;BME280;68563;45.644;13.782;2023-10-31T10:36:24;99780.88;;;17.96;72.04
79150;BME280;68563;45.644;13.782;2023-10-31T10:38:53;99773.50;;;18.02;72.09
79150;BME280;68563;45.644;13.782;2023-10-31T10:41:22;99773.44;;;18.04;71.56
79150;BME280;68563;45.644;13.782;2023-10-31T10:43:55;99759.66;;;18.00;70.58
79150;BME280;68563;45.644;13.782;2023-10-31T10:46:21;99762.84;;;18.06;70.89
79150;BME280;68563;45.644;13.782;2023-10-31T10:48:48;99764.44;;;18.08;70.95
79150;BME280;68563;45.644;13.782;2023-10-31T10:51:33;99771.09;;;18.14;66.34
79150;BME280;68563;45.644;13.782;2023-10-31T10:54:14;99754.06;;;18.07;67.53
79150;BME280;68563;45.644;13.782;2023-10-31T10:56:44;99761.56;;;18.13;66.80
79150;BME280;68563;45.644;13.782;2023-10-31T11:01:38;99746.41;;;18.18;65.01
79150;BME280;68563;45.644;13.782;2023-10-31T11:04:05;99728.97;;;18.17;64.77
79150;BME280;68563;45.644;13.782;2023-10-31T11:06:31;99749.78;;;18.20;64.59
79150;BME280;68563;45.644;13.782;2023-10-31T11:08:58;99740.69;;;18.11;65.06
79150;BME280;68563;45.644;13.782;2023-10-31T11:11:24;99772.44;;;18.21;66.75
79150;BME280;68563;45.644;13.782;2023-10-31T11:13:50;99777.31;;;18.27;67.68
79150;BME280;68563;45.644;13.782;2023-10-31T11:16:41;99797.78;;;18.21;68.41
79150;BME280;68563;45.644;13.782;2023-10-31T11:19:09;99805.91;;;18.16;67.96
79150;BME280;68563;45.644;13.782;2023-10-31T11:21:35;99815.72;;;18.12;67.15
79150;BME280;68563;45.644;13.782;2023-10-31T11:24:00;99833.31;;;18.10;65.83
79150;BME280;68563;45.644;13.782;2023-10-31T11:26:29;99839.31;;;18.12;66.09
79150;BME280;68563;45.644;13.782;2023-10-31T11:29:13;99838.06;;;18.04;66.37
79150;BME280;68563;45.644;13.782;2023-10-31T11:31:38;99853.97;;;18.00;66.31
79150;BME280;68563;45.644;13.782;2023-10-31T11:34:06;99863.25;;;17.90;66.75
79150;BME280;68563;45.644;13.782;2023-10-31T11:36:31;99843.97;;;17.91;66.58
79150;BME280;68563;45.644;13.782;2023-10-31T11:39:11;99843.31;;;17.88;65.33
79150;BME280;68563;45.644;13.782;2023-10-31T11:41:40;99847.09;;;17.82;65.47
79150;BME280;68563;45.644;13.782;2023-10-31T11:44:10;99847.97;;;17.82;65.63
79150;BME280;68563;45.644;13.782;2023-10-31T11:46:36;99847.53;;;17.90;66.09
79150;BME280;68563;45.644;13.782;2023-10-31T11:49:01;99854.47;;;17.91;65.12
79150;BME280;68563;45.644;13.782;2023-10-31T11:51:29;99844.81;;;17.92;65.40
79150;BME280;68563;45.644;13.782;2023-10-31T11:53:55;99842.94;;;17.94;64.55
79150;BME280;68563;45.644;13.782;2023-10-31T11:56:21;99839.25;;;17.98;64.26
79150;BME280;68563;45.644;13.782;2023-10-31T12:01:22;99834.09;;;17.96;64.27
79150;BME280;68563;45.644;13.782;2023-10-31T12:03:47;99827.94;;;17.97;63.79
79150;BME280;68563;45.644;13.782;2023-10-31T12:06:14;99825.72;;;18.06;63.82
79150;BME280;68563;45.644;13.782;2023-10-31T12:08:42;99817.88;;;18.06;63.43
79150;BME280;68563;45.644;13.782;2023-10-31T12:11:13;99812.63;;;18.06;63.40
79150;BME280;68563;45.644;13.782;2023-10-31T12:13:41;99810.84;;;18.06;62.31
79150;BME280;68563;45.644;13.782;2023-10-31T12:16:08;99804.94;;;18.02;62.15
79150;BME280;68563;45.644;13.782;2023-10-31T12:18:35;99808.06;;;18.09;62.43
79150;BME280;68563;45.644;13.782;2023-10-31T12:21:01;99807.47;;;18.04;61.32
79150;BME280;68563;45.644;13.782;2023-10-31T12:23:26;99800.72;;;18.00;61.98
79150;BME280;68563;45.644;13.782;2023-10-31T12:25:53;99806.97;;;17.97;61.57
79150;BME280;68563;45.644;13.782;2023-10-31T12:28:20;99797.16;;;18.01;61.14
79150;BME280;68563;45.644;13.782;2023-10-31T12:30:47;99784.75;;;17.89;60.72
79150;BME280;68563;45.644;13.782;2023-10-31T12:33:13;99786.50;;;17.88;61.11
79150;BME280;68563;45.644;13.782;2023-10-31T12:35:39;99776.56;;;17.95;61.20
79150;BME280;68563;45.644;13.782;2023-10-31T12:38:05;99765.66;;;17.86;60.45
79150;BME280;68563;45.644;13.782;2023-10-31T12:40:31;99776.22;;;17.85;60.40
79150;BME280;68563;45.644;13.782;2023-10-31T12:42:57;99773.03;;;17.80;59.89
79150;BME280;68563;45.644;13.782;2023-10-31T12:45:24;99772.28;;;17.78;59.71
79150;BME280;68563;45.644;13.782;2023-10-31T12:48:08;99786.72;;;17.85;58.60
79150;BME280;68563;45.644;13.782;2023-10-31T12:50:36;99776.22;;;17.85;57.98
79150;BME280;68563;45.644;13.782;2023-10-31T12:53:03;99779.41;;;17.90;57.50